Time;durP1;ratioP1;P1;durP2;ratioP2;P2;SDS_P1;SDS_P2;PMS_P1;PMS_P2;Temp;Humidity;BMP_temperature;BMP_pressure;BME280_temperature;BME280_humidity;BME280_pressure;Samples;Min_cycle;Max_cycle;Signal;HPM_P1;HPM_P2
2022/10/04 00:02:46;;;;;;;6.97;4.78;;;;;;;8.21;84.18;97832.03;10290267;28;20073;-59
2022/10/04 00:07:51;;;;;;;8.63;4.55;;;;;;;8.31;83.98;97830.41;10290397;28;20099;-58
2022/10/04 00:12:56;;;;;;;8.20;5.72;;;;;;;8.33;84.37;97833.00;10289676;28;20084;-59
2022/10/04 00:18:01;;;;;;;8.90;5.78;;;;;;;8.40;83.96;97830.50;10289133;28;20069;-58
2022/10/04 00:23:24;;;;;;;7.32;5.07;;;;;;;8.43;83.49;97830.50;10294238;28;20126;-58
2022/10/04 00:28:23;;;;;;;17.50;9.63;;;;;;;8.37;83.45;97822.72;10297623;28;20057;-58
2022/10/04 00:33:43;;;;;;;13.60;6.82;;;;;;;8.31;83.76;97817.47;10297076;28;20056;-59
2022/10/04 00:38:42;;;;;;;11.52;6.45;;;;;;;8.27;83.97;97806.25;10297753;28;20062;-59
2022/10/04 00:43:48;;;;;;;9.05;4.65;;;;;;;8.18;83.71;97802.72;10297057;28;20052;-58
2022/10/04 00:48:55;;;;;;;9.35;5.13;;;;;;;8.24;83.30;97810.53;10296781;28;20061;-58
2022/10/04 00:54:16;;;;;;;7.07;4.80;;;;;;;8.16;83.54;97786.34;10296437;28;20069;-58
2022/10/04 00:59:30;;;;;;;13.07;6.15;;;;;;;8.17;84.23;97807.00;10296322;28;20065;-58
2022/10/04 01:04:48;;;;;;;10.73;6.00;;;;;;;8.14;84.01;97809.56;10296093;28;20084;-58
2022/10/04 01:09:53;;;;;;;13.13;6.70;;;;;;;8.15;84.39;97818.19;10296546;28;20073;-58
2022/10/04 01:15:07;;;;;;;12.02;6.35;;;;;;;8.13;84.53;97820.78;10296421;28;20069;-59
2022/10/04 01:20:31;;;;;;;7.75;5.60;;;;;;;8.13;85.07;97809.56;10296784;28;20065;-59
2022/10/04 01:25:48;;;;;;;9.52;5.10;;;;;;;8.12;85.30;97815.59;10295192;28;20427;-58
2022/10/04 01:30:47;;;;;;;6.03;4.57;;;;;;;8.06;84.92;97806.03;10295902;28;20073;-59
2022/10/04 01:35:47;;;;;;;;;;;;;;;8.15;84.73;97813.88;10294986;28;20104;-58
2022/10/04 01:40:56;;;;;;;6.53;4.00;;;;;;;8.18;84.85;97821.69;10295449;28;19965;-58
2022/10/04 01:46:02;;;;;;;7.63;3.67;;;;;;;8.13;85.02;97818.19;10294855;28;20088;-59
2022/10/04 01:51:12;;;;;;;8.07;3.95;;;;;;;8.06;84.87;97793.13;10295370;28;20112;-59
2022/10/04 01:56:13;;;;;;;;;;;;;;;8.09;85.29;97812.13;10294501;28;20053;-59
2022/10/04 02:01:27;;;;;;;7.95;3.78;;;;;;;8.07;85.10;97808.63;10293663;28;19964;-58
2022/10/04 02:06:27;;;;;;;7.68;4.55;;;;;;;7.99;85.15;97828.38;10293835;28;20069;-58
2022/10/04 02:11:29;;;;;;;15.27;6.55;;;;;;;7.99;85.48;97830.97;10293979;28;20516;-58
2022/10/04 02:16:28;;;;;;;14.02;7.15;;;;;;;7.98;85.68;97825.78;10293452;28;20078;-58
2022/10/04 02:21:28;;;;;;;13.20;6.10;;;;;;;8.00;86.20;97822.34;10293758;28;20073;-59
2022/10/04 02:26:27;;;;;;;9.05;5.50;;;;;;;8.09;85.74;97822.44;10293115;28;20065;-58
2022/10/04 02:36:46;;;;;;;9.18;5.57;;;;;;;8.31;85.79;97835.56;10293358;28;20073;-59
2022/10/04 02:41:51;;;;;;;10.35;5.93;;;;;;;8.35;85.54;97837.34;10293101;28;20606;-58
2022/10/04 02:47:29;;;;;;;8.15;5.30;;;;;;;8.39;85.59;97862.38;10290136;28;20069;-58
2022/10/04 02:52:32;;;;;;;9.30;5.45;;;;;;;8.35;85.42;97870.97;10291376;28;20516;-58
2022/10/04 02:57:33;;;;;;;9.07;5.82;;;;;;;8.28;85.75;97866.59;10292013;28;20108;-58
2022/10/04 03:02:33;;;;;;;15.00;9.13;;;;;;;8.22;85.82;97874.25;10291800;28;20072;-58
2022/10/04 03:07:34;;;;;;;13.43;7.93;;;;;;;8.16;86.00;97859.56;10291547;28;20077;-58
2022/10/04 03:12:33;;;;;;;14.15;7.30;;;;;;;8.36;85.56;97870.09;10291892;28;20109;-58
2022/10/04 03:17:33;;;;;;;;;;;;;;;8.50;85.58;97859.88;10291037;28;20510;-58
2022/10/04 03:22:32;;;;;;;11.93;7.20;;;;;;;8.58;85.64;97866.00;10291755;28;19952;-58
2022/10/04 03:27:33;;;;;;;11.88;5.85;;;;;;;8.69;85.59;97876.41;10291203;28;20037;-58
2022/10/04 03:32:32;;;;;;;15.65;6.70;;;;;;;8.71;85.44;97885.06;10290536;28;20081;-58
2022/10/04 03:37:35;;;;;;;11.98;7.18;;;;;;;8.60;85.96;97879.81;10290940;28;20092;-58
2022/10/04 03:42:36;;;;;;;14.00;8.07;;;;;;;8.42;86.14;97887.41;10291289;28;20076;-58
2022/10/04 03:47:39;;;;;;;9.80;6.65;;;;;;;8.36;86.39;97877.00;10289981;28;20058;-58
2022/10/04 03:52:44;;;;;;;13.43;7.10;;;;;;;8.50;86.02;97886.63;10290077;28;20492;-58
2022/10/04 03:57:43;;;;;;;10.15;6.57;;;;;;;8.12;86.89;97898.28;10289839;28;20077;-58
2022/10/04 04:02:45;;;;;;;10.00;5.90;;;;;;;8.20;86.28;97901.81;10288112;28;20087;-58
2022/10/04 04:08:00;;;;;;;10.55;5.28;;;;;;;8.23;86.32;97896.69;10289169;28;20057;-58
2022/10/04 04:13:23;;;;;;;8.45;5.40;;;;;;;8.32;85.94;97894.22;10290095;28;20069;-58
2022/10/04 04:18:26;;;;;;;8.73;5.20;;;;;;;8.45;85.88;97902.94;10289661;28;20073;-58
2022/10/04 04:23:32;;;;;;;8.05;5.20;;;;;;;8.54;85.25;97905.63;10289142;28;20072;-58
2022/10/04 04:29:03;;;;;;;8.93;4.90;;;;;;;8.65;85.52;97900.56;10289256;28;20069;-58
2022/10/04 04:34:13;;;;;;;8.38;5.53;;;;;;;8.56;85.27;97905.66;10288307;28;20089;-58
2022/10/04 04:39:33;;;;;;;10.90;5.50;;;;;;;8.59;85.17;97905.66;10289334;28;20065;-58
2022/10/04 04:44:32;;;;;;;11.63;6.30;;;;;;;8.60;85.27;97912.56;10288988;28;20076;-58
2022/10/04 04:49:32;;;;;;;12.35;6.70;;;;;;;8.48;85.89;97919.38;10288920;28;20571;-58
2022/10/04 04:54:31;;;;;;;11.23;6.43;;;;;;;8.37;85.92;97908.03;10311417;28;20527;-58
2022/10/04 04:59:30;;;;;;;8.80;5.18;;;;;;;8.42;85.67;97921.88;10329442;28;20072;-58
2022/10/04 05:04:29;;;;;;;16.85;7.45;;;;;;;8.37;85.17;97939.06;10323154;28;20061;-58
2022/10/04 05:09:34;;;;;;;10.32;6.82;;;;;;;8.33;85.44;97939.03;10289874;28;21437;-58
2022/10/04 05:14:39;;;;;;;13.00;6.88;;;;;;;8.31;85.45;97936.41;10302901;28;20062;-58
2022/10/04 05:19:39;;;;;;;10.70;6.40;;;;;;;8.31;85.41;97928.66;10304770;28;20061;-58
2022/10/04 05:24:45;;;;;;;;;;;;;;;8.42;85.12;97945.16;10302593;28;20053;-58
2022/10/04 05:30:04;;;;;;;12.60;8.02;;;;;;;8.49;85.02;97946.94;10316069;28;20380;-58
2022/10/04 05:35:18;;;;;;;16.70;9.30;;;;;;;8.55;85.34;97947.84;10303160;28;20635;-58
2022/10/04 05:40:56;;;;;;;13.63;8.38;;;;;;;8.59;85.68;97957.41;10313935;28;20456;-58
2022/10/04 05:46:18;;;;;;;17.73;8.52;;;;;;;8.56;85.38;97962.53;10287138;28;20069;-58
2022/10/04 05:51:29;;;;;;;17.63;11.40;;;;;;;8.47;85.68;97976.25;10307799;28;20069;-58
2022/10/04 06:20:01;;;;;;;24.65;15.18;;;;;;;8.57;88.24;98010.81;10527434;27;20405;-58
2022/10/04 06:25:30;;;;;;;26.88;15.07;;;;;;;8.81;87.62;98011.09;10524681;28;20066;-57
2022/10/04 06:30:55;;;;;;;36.03;21.40;;;;;;;8.94;87.49;98033.63;10523740;28;20059;-57
2022/10/04 06:36:21;;;;;;;25.73;13.38;;;;;;;8.72;86.87;98032.56;10537070;28;20062;-57
2022/10/04 06:41:27;;;;;;;16.63;10.18;;;;;;;8.66;86.48;98034.22;10521926;28;20437;-57
2022/10/04 06:46:41;;;;;;;23.33;12.02;;;;;;;8.80;86.53;98039.53;10517283;27;20126;-57
2022/10/04 06:52:16;;;;;;;16.70;10.65;;;;;;;8.97;86.84;98045.75;10495000;27;20067;-57
2022/10/04 06:57:15;;;;;;;23.27;14.43;;;;;;;9.23;87.47;98051.19;10493673;28;20071;-57
2022/10/04 07:02:25;;;;;;;23.50;14.38;;;;;;;9.48;86.96;98046.25;10492794;28;20027;-58
2022/10/04 07:07:34;;;;;;;25.27;14.07;;;;;;;9.80;86.08;98058.59;10523408;28;20055;-57
2022/10/04 07:12:39;;;;;;;23.45;16.20;;;;;;;10.15;85.47;98062.25;10512634;27;20070;-58
2022/10/04 07:17:42;;;;;;;23.08;13.52;;;;;;;10.51;85.41;98059.81;10524357;28;20074;-58
2022/10/04 07:22:46;;;;;;;12.05;7.40;;;;;;;10.98;84.65;98064.34;10506847;28;20449;-58
2022/10/04 07:33:19;;;;;;;7.95;4.03;;;;;;;12.18;79.58;98060.00;10465382;28;20502;-58
2022/10/04 07:38:28;;;;;;;5.30;3.35;;;;;;;12.79;76.65;98066.75;10464640;28;20055;-58
2022/10/04 07:43:31;;;;;;;4.90;2.85;;;;;;;13.33;71.38;98061.22;10489549;28;20051;-58
2022/10/04 07:48:30;;;;;;;6.85;3.10;;;;;;;13.82;67.79;98057.38;10504736;28;20474;-58
2022/10/04 07:54:01;;;;;;;4.28;2.63;;;;;;;14.36;64.36;98061.19;10505475;28;20066;-58
2022/10/04 07:59:28;;;;;;;3.35;1.90;;;;;;;14.82;61.92;98051.94;10502408;28;20062;-59
2022/10/04 08:04:43;;;;;;;4.22;2.40;;;;;;;14.77;57.13;98044.16;10500611;28;20104;-58
2022/10/04 08:09:51;;;;;;;4.53;1.80;;;;;;;14.42;52.92;98065.44;10463258;28;20060;-58
2022/10/04 08:15:32;;;;;;;3.25;1.92;;;;;;;14.28;54.69;98067.34;10462692;28;20075;-59
2022/10/04 08:20:37;;;;;;;3.35;2.05;;;;;;;14.13;54.45;98069.25;10462348;28;20072;-58
2022/10/04 08:25:39;;;;;;;3.90;1.77;;;;;;;14.06;54.09;98056.28;10461416;28;20062;-58
2022/10/04 08:31:03;;;;;;;2.60;1.90;;;;;;;13.92;54.43;98070.31;10480292;28;20085;-58
2022/10/04 08:36:19;;;;;;;4.78;2.80;;;;;;;14.01;54.82;98063.28;10503553;28;20059;-58
2022/10/04 08:41:39;;;;;;;3.88;1.77;;;;;;;14.16;52.71;98069.22;10495554;28;20521;-58
2022/10/04 08:47:04;;;;;;;2.80;1.67;;;;;;;14.45;52.24;98061.94;10461388;28;20442;-58
2022/10/04 08:52:21;;;;;;;4.03;2.13;;;;;;;14.64;51.83;98060.84;10461580;28;20060;-58
2022/10/04 08:58:00;;;;;;;1.60;1.50;;;;;;;15.02;49.62;98060.38;10461918;28;20074;-58
2022/10/04 09:03:11;;;;;;;1.70;1.50;;;;;;;15.11;48.71;98056.78;10487657;28;20918;-58
2022/10/04 09:08:28;;;;;;;3.78;1.67;;;;;;;15.10;49.00;98065.47;10466835;28;20059;-58
2022/10/04 09:13:58;;;;;;;3.15;1.67;;;;;;;15.42;48.09;98066.78;10461178;28;20059;-58
2022/10/04 09:19:38;;;;;;;2.38;1.60;;;;;;;15.70;48.63;98074.19;10460595;28;20071;-58
2022/10/04 09:25:01;;;;;;;4.35;1.90;;;;;;;15.87;48.08;98075.63;10460691;28;20066;-58
2022/10/04 09:30:20;;;;;;;3.15;1.70;;;;;;;15.59;46.80;98077.81;10461469;28;20059;-58
2022/10/04 09:35:34;;;;;;;3.13;1.70;;;;;;;15.34;46.66;98079.97;10460381;28;20047;-58
2022/10/04 09:40:33;;;;;;;5.15;2.42;;;;;;;14.90;47.52;98075.38;10461704;28;20070;-58
2022/10/04 09:46:03;;;;;;;2.95;1.90;;;;;;;14.74;47.58;98083.38;10501730;28;20055;-58
2022/10/04 09:51:30;;;;;;;2.13;1.60;;;;;;;14.86;48.33;98079.75;10499259;28;20035;-58
2022/10/04 09:56:53;;;;;;;4.93;1.70;;;;;;;15.02;47.94;98078.66;10496311;28;20129;-58
2022/10/04 10:02:13;;;;;;;2.03;1.33;;;;;;;15.16;46.29;98070.63;10454322;28;20474;-58
2022/10/04 10:07:15;;;;;;;1.75;1.58;;;;;;;15.37;45.74;98073.81;10454580;28;20051;-58
2022/10/04 10:18:13;;;;;;;1.20;1.10;;;;;;;15.40;45.70;98087.69;10457895;28;20573;-58
2022/10/04 10:23:25;;;;;;;2.95;1.55;;;;;;;15.36;47.31;98087.78;10457702;28;20068;-59
2022/10/04 10:28:37;;;;;;;3.65;1.85;;;;;;;15.77;47.77;98091.50;10457489;28;20051;-58
2022/10/04 10:33:51;;;;;;;1.98;1.30;;;;;;;16.12;45.42;98080.47;10457638;28;20067;-58
2022/10/04 10:39:20;;;;;;;1.63;1.20;;;;;;;16.17;44.38;98078.63;10456565;28;20059;-58
2022/10/04 10:44:25;;;;;;;2.17;1.60;;;;;;;16.44;44.46;98078.97;10490190;28;20125;-58
2022/10/04 10:49:40;;;;;;;2.22;1.50;;;;;;;16.34;44.90;98064.34;10499299;28;20060;-58
2022/10/04 10:54:42;;;;;;;2.90;1.60;;;;;;;16.52;44.65;98070.09;10504552;28;20078;-58
2022/10/04 11:00:11;;;;;;;3.35;1.95;;;;;;;16.56;45.29;98070.00;10506767;28;20051;-58
2022/10/04 11:05:39;;;;;;;2.35;1.73;;;;;;;16.79;45.36;98080.88;10506193;28;20055;-58
2022/10/04 11:10:45;;;;;;;2.08;1.90;;;;;;;16.91;45.57;98085.03;10507245;27;20070;-58
2022/10/04 11:16:22;;;;;;;3.53;1.80;;;;;;;17.21;45.66;98080.88;10506029;28;20130;-58
2022/10/04 11:21:36;;;;;;;1.73;1.30;;;;;;;17.47;45.14;98084.69;10505996;28;20055;-58
2022/10/04 11:26:56;;;;;;;3.47;2.00;;;;;;;17.69;46.49;98075.41;10505694;28;20047;-59
2022/10/04 11:32:01;;;;;;;5.63;1.98;;;;;;;17.50;45.41;98068.88;10505373;28;20051;-58
2022/10/04 11:37:11;;;;;;;2.85;1.98;;;;;;;17.37;46.06;98075.31;10505257;28;20051;-59
2022/10/04 11:42:37;;;;;;;3.03;1.63;;;;;;;17.27;46.81;98072.03;10505683;28;20067;-58
2022/10/04 11:48:00;;;;;;;2.20;1.65;;;;;;;17.23;46.31;98076.47;10504870;28;20055;-58
2022/10/04 11:53:02;;;;;;;4.15;1.90;;;;;;;17.09;45.86;98075.94;10503949;28;20071;-58
2022/10/04 11:58:28;;;;;;;4.18;1.70;;;;;;;17.06;46.84;98071.63;10504372;28;20055;-58
2022/10/04 12:04:04;;;;;;;6.95;3.28;;;;;;;17.16;47.14;98067.03;10504216;28;20063;-58
2022/10/04 12:09:54;;;;;;;6.60;3.60;;;;;;;17.25;47.90;98065.97;10504483;28;20074;-59
2022/10/04 12:15:22;;;;;;;2.97;2.58;;;;;;;17.35;46.86;98068.34;10480049;28;20067;-59
2022/10/04 12:20:46;;;;;;;6.70;3.90;;;;;;;17.29;47.12;98073.72;10503618;28;20066;-59
2022/10/04 12:26:07;;;;;;;7.00;3.75;;;;;;;17.33;47.04;98079.75;10503894;28;20058;-58
2022/10/04 12:31:08;;;;;;;1.90;1.75;;;;;;;17.43;46.86;98073.41;10503297;28;20065;-59
2022/10/04 12:36:48;;;;;;;1.85;1.67;;;;;;;17.43;46.06;98080.44;10503396;28;20055;-59
2022/10/04 12:42:20;;;;;;;1.63;1.50;;;;;;;17.22;47.31;98076.53;10498240;28;20063;-58
2022/10/04 12:47:49;;;;;;;2.80;2.03;;;;;;;17.29;47.19;98084.22;10502411;28;20463;-59
2022/10/04 12:53:01;;;;;;;6.25;2.17;;;;;;;17.27;47.07;98070.28;10502881;28;20106;-59
2022/10/04 12:58:21;;;;;;;3.13;1.70;;;;;;;17.37;47.22;98070.06;10502498;28;20064;-59
2022/10/04 13:03:23;;;;;;;1.75;1.50;;;;;;;17.42;46.55;98070.81;10502144;27;20059;-59
2022/10/04 13:08:46;;;;;;;1.30;1.20;;;;;;;17.57;44.75;98075.72;10501459;28;20509;-59
2022/10/04 13:14:10;;;;;;;2.92;1.30;;;;;;;17.80;44.35;98069.94;10500548;27;20063;-59
2022/10/04 13:19:30;;;;;;;5.25;1.80;;;;;;;17.85;44.69;98073.28;10501060;28;20071;-59
2022/10/04 13:24:59;;;;;;;3.42;1.60;;;;;;;17.80;44.84;98071.66;10500790;28;20063;-59
2022/10/04 13:30:26;;;;;;;3.90;2.00;;;;;;;17.67;45.35;98084.22;10500763;28;20051;-59
2022/10/04 13:35:35;;;;;;;2.70;1.67;;;;;;;17.58;45.93;98085.28;10489180;28;20305;-59
2022/10/04 13:41:15;;;;;;;4.37;2.50;;;;;;;17.61;46.42;98079.09;10501343;28;20094;-59
2022/10/04 13:46:29;;;;;;;3.78;2.30;;;;;;;17.59;46.27;98094.03;10495026;28;20478;-59
2022/10/04 13:56:35;;;;;;;1.70;1.60;;;;;;;17.74;46.74;98094.53;10500058;28;20059;-59
2022/10/04 13:57:17;;;;;;;1.60;1.50;;;;;;;17.77;45.32;98091.84;10500194;28;20054;-59
2022/10/04 14:02:39;;;;;;;1.92;1.83;;;;;;;17.82;44.63;98098.75;10499793;28;20054;-59
2022/10/04 14:08:20;;;;;;;2.10;1.70;;;;;;;17.72;43.65;98104.19;10499868;28;20062;-59
2022/10/04 14:13:42;;;;;;;1.88;1.73;;;;;;;17.68;44.44;98106.91;10411412;28;20060;-59
2022/10/04 14:19:14;;;;;;;2.30;1.80;;;;;;;17.64;43.85;98114.03;10486453;28;20460;-59
2022/10/04 14:24:32;;;;;;;2.60;2.15;;;;;;;17.17;42.78;98131.72;10499600;28;20067;-59
2022/10/04 14:29:49;;;;;;;5.47;4.10;;;;;;;16.56;43.42;98132.88;10505159;28;20074;-59
2022/10/04 14:34:55;;;;;;;8.85;7.82;;;;;;;16.13;44.50;98134.53;10507944;28;20094;-59
2022/10/04 14:40:09;;;;;;;4.75;1.90;;;;;;;15.76;44.98;98135.09;10507562;27;20063;-59
2022/10/04 14:45:23;;;;;;;3.53;2.58;;;;;;;15.61;45.88;98130.13;10471593;28;20114;-58
2022/10/04 14:50:31;;;;;;;4.75;2.60;;;;;;;15.23;49.02;98145.47;10463413;28;20047;-59
2022/10/04 14:56:02;;;;;;;4.82;2.58;;;;;;;15.15;50.80;98142.09;10462140;28;20074;-59
2022/10/04 15:01:04;;;;;;;4.45;2.50;;;;;;;15.37;51.67;98147.03;10426274;28;20070;-59
2022/10/04 15:06:35;;;;;;;3.15;2.50;;;;;;;15.49;52.20;98162.56;10462032;28;20405;-59
2022/10/04 15:11:53;;;;;;;2.83;2.40;;;;;;;15.50;52.36;98143.34;10449856;28;20106;-59
2022/10/04 15:16:57;;;;;;;4.25;2.33;;;;;;;15.33;52.64;98158.44;10444670;28;20491;-59
2022/10/04 15:22:26;;;;;;;4.35;2.17;;;;;;;15.18;52.94;98173.44;10463043;28;20533;-59
2022/10/04 15:27:34;;;;;;;4.60;2.87;;;;;;;15.02;52.20;98177.13;10461774;28;20545;-58
2022/10/04 15:32:36;;;;;;;8.68;3.72;;;;;;;14.87;52.76;98185.97;10461360;28;20536;-58
2022/10/04 15:37:54;;;;;;;7.97;4.28;;;;;;;14.72;54.66;98192.25;10460879;28;20043;-58
2022/10/04 15:43:28;;;;;;;7.63;5.20;;;;;;;14.51;55.72;98195.06;10472400;28;20494;-58
2022/10/04 15:48:42;;;;;;;9.52;4.80;;;;;;;14.39;56.68;98201.25;10496189;28;20047;-59
2022/10/04 15:54:06;;;;;;;8.52;5.00;;;;;;;14.24;57.45;98204.88;10460410;28;20059;-58
2022/10/04 15:59:34;;;;;;;31.65;22.02;;;;;;;14.07;57.65;98209.34;10460040;28;20063;-59
2022/10/04 16:04:39;;;;;;;14.85;10.10;;;;;;;13.83;56.94;98210.41;10460081;28;20059;-58
2022/10/04 16:09:51;;;;;;;12.20;5.82;;;;;;;13.71;56.64;98229.59;10458193;28;20581;-58
2022/10/04 16:15:12;;;;;;;11.32;7.50;;;;;;;13.53;57.75;98233.16;10459460;28;20481;-59
2022/10/04 16:20:33;;;;;;;12.40;7.82;;;;;;;13.44;58.41;98248.81;10459534;28;20048;-58
2022/10/04 16:25:37;;;;;;;12.95;8.38;;;;;;;13.34;59.89;98258.44;10458721;28;20067;-58
2022/10/04 16:30:58;;;;;;;13.20;8.27;;;;;;;13.28;59.87;98274.97;10455418;28;20062;-58
2022/10/04 16:36:43;;;;;;;16.77;8.73;;;;;;;13.28;60.71;98284.50;10454641;28;20486;-58
2022/10/04 16:41:53;;;;;;;12.27;8.65;;;;;;;13.24;61.40;98293.22;10445642;28;20063;-58
2022/10/04 16:46:55;;;;;;;15.38;9.20;;;;;;;13.22;62.04;98298.44;10459766;28;20063;-58
2022/10/04 16:52:04;;;;;;;13.90;7.85;;;;;;;13.17;61.74;98307.16;10459124;28;20455;-58
2022/10/04 16:57:13;;;;;;;12.73;8.93;;;;;;;13.01;61.98;98317.59;10459169;28;20056;-58
2022/10/04 17:02:22;;;;;;;13.50;9.63;;;;;;;12.89;62.78;98326.28;10459127;28;20070;-59
2022/10/04 17:07:51;;;;;;;15.70;11.45;;;;;;;12.81;63.95;98332.38;10458865;28;20056;-58
2022/10/04 17:13:06;;;;;;;15.27;11.18;;;;;;;12.72;65.15;98338.47;10459050;28;20466;-58
2022/10/04 17:18:44;;;;;;;15.60;10.27;;;;;;;12.56;66.06;98349.75;10458810;28;20071;-58
2022/10/04 17:24:07;;;;;;;11.77;8.40;;;;;;;12.46;67.16;98354.06;10436460;28;20536;-59
2022/10/04 17:29:31;;;;;;;10.75;8.23;;;;;;;12.35;67.97;98355.81;10458229;28;20069;-58
2022/10/04 17:34:47;;;;;;;17.17;10.32;;;;;;;12.15;68.54;98360.94;10458341;28;20071;-58
2022/10/04 17:39:53;;;;;;;18.65;12.35;;;;;;;12.06;69.25;98374.75;10458229;28;20056;-59
2022/10/04 17:45:15;;;;;;;17.98;12.38;;;;;;;11.92;70.17;98385.13;10457811;28;20074;-58
2022/10/04 17:55:52;;;;;;;21.73;14.75;;;;;;;11.70;72.32;98391.13;10458042;28;20063;-59
2022/10/04 18:00:54;;;;;;;18.67;13.75;;;;;;;11.57;72.01;98401.47;10457115;28;20062;-58
2022/10/04 18:05:58;;;;;;;16.90;11.15;;;;;;;11.43;72.52;98403.97;10455922;28;20523;-59
2022/10/04 18:11:02;;;;;;;19.00;12.27;;;;;;;11.25;72.41;98403.84;10457344;28;20063;-58
2022/10/04 18:16:23;;;;;;;15.95;11.63;;;;;;;11.10;73.79;98414.13;10457075;28;20075;-58
2022/10/04 18:21:30;;;;;;;13.82;10.32;;;;;;;10.99;74.61;98419.25;10457102;28;20058;-58
2022/10/04 18:26:31;;;;;;;20.13;11.77;;;;;;;10.60;75.26;98369.56;10456672;28;20197;-58
2022/10/04 18:31:35;;;;;;;18.40;14.18;;;;;;;10.78;76.23;98427.69;10457299;28;20371;-58
2022/10/04 18:36:56;;;;;;;21.27;14.82;;;;;;;10.56;76.54;98437.84;10456922;28;20075;-59
2022/10/04 18:42:22;;;;;;;18.67;13.60;;;;;;;10.43;77.55;98445.53;10456334;28;20063;-59
2022/10/04 18:47:40;;;;;;;18.65;13.38;;;;;;;10.32;77.08;98448.84;10451695;28;20067;-58
2022/10/04 18:53:18;;;;;;;14.38;10.70;;;;;;;10.13;79.20;98460.75;10455262;28;20339;-58
2022/10/04 19:03:58;;;;;;;15.40;11.38;;;;;;;9.93;80.24;98475.16;10456592;28;20055;-58
2022/10/04 19:09:24;;;;;;;21.52;14.45;;;;;;;9.88;80.70;98471.66;10456052;28;20087;-58
2022/10/04 19:14:53;;;;;;;19.70;13.27;;;;;;;9.84;80.73;98464.69;10458985;28;20059;-58
2022/10/04 19:20:33;;;;;;;18.20;13.73;;;;;;;9.78;80.84;98471.53;10463329;28;20087;-58
2022/10/04 19:25:38;;;;;;;16.03;10.13;;;;;;;9.64;81.08;98478.25;10463184;28;20062;-58
2022/10/04 19:30:50;;;;;;;21.83;13.05;;;;;;;9.49;81.70;98478.91;10462648;28;20506;-58
2022/10/04 19:36:31;;;;;;;24.35;16.23;;;;;;;9.40;82.34;98483.06;10462522;28;20068;-58
2022/10/04 19:41:47;;;;;;;17.50;11.90;;;;;;;9.07;83.35;98442.81;10374432;28;20064;-58
2022/10/04 19:46:56;;;;;;;17.17;12.43;;;;;;;9.20;83.64;98486.16;10446125;28;20071;-58
2022/10/04 19:52:17;;;;;;;20.95;14.35;;;;;;;9.05;85.12;98493.69;10461880;28;20067;-58
2022/10/04 19:57:28;;;;;;;19.73;13.38;;;;;;;9.01;84.71;98494.50;10462132;28;20062;-58
2022/10/04 20:02:28;;;;;;;18.52;12.75;;;;;;;8.96;84.80;98496.13;10461754;28;20085;-58
2022/10/04 20:07:27;;;;;;;18.30;13.45;;;;;;;8.86;85.54;98501.16;10461371;28;20064;-58
2022/10/04 20:12:36;;;;;;;19.00;13.30;;;;;;;8.71;86.73;98512.06;10456836;28;20514;-58
2022/10/04 20:17:36;;;;;;;18.00;12.10;;;;;;;8.46;88.08;98520.25;10425687;27;20103;-58
2022/10/04 20:22:53;;;;;;;20.02;15.23;;;;;;;8.39;87.99;98529.59;10375755;28;20079;-58
2022/10/04 20:27:54;;;;;;;28.77;23.42;;;;;;;8.35;88.16;98532.06;10376104;28;20064;-58
2022/10/04 20:32:55;;;;;;;24.70;19.20;;;;;;;8.28;87.81;98533.66;10373858;28;20060;-58
2022/10/04 20:37:57;;;;;;;20.88;14.35;;;;;;;8.23;87.95;98543.91;10376562;28;20072;-58
2022/10/04 20:43:14;;;;;;;34.40;20.98;;;;;;;8.15;88.51;98539.41;10375046;28;20064;-58
2022/10/04 20:48:18;;;;;;;30.00;19.95;;;;;;;8.08;88.64;98544.47;10374892;28;20068;-58
2022/10/04 20:53:17;;;;;;;33.65;21.98;;;;;;;7.98;89.21;98558.00;10375406;28;20069;-58
2022/10/04 20:58:33;;;;;;;27.63;20.77;;;;;;;7.91;89.02;98557.84;10374326;28;20029;-58
2022/10/04 21:03:32;;;;;;;32.30;22.75;;;;;;;7.84;89.76;98559.41;10376973;28;20483;-58
2022/10/04 21:08:32;;;;;;;36.08;25.63;;;;;;;7.81;89.36;98556.78;10376003;28;20537;-58
2022/10/04 21:13:40;;;;;;;30.55;20.67;;;;;;;7.74;89.91;98558.34;10375545;28;20114;-58
2022/10/04 21:18:39;;;;;;;31.90;20.75;;;;;;;7.71;89.51;98563.44;10376233;28;20081;-58
2022/10/04 21:23:38;;;;;;;26.63;19.70;;;;;;;7.64;89.94;98562.41;10375397;28;20083;-58
2022/10/04 21:28:37;;;;;;;27.13;19.25;;;;;;;7.56;90.06;98563.94;10375383;28;20522;-58
2022/10/04 21:33:36;;;;;;;23.48;17.92;;;;;;;7.56;90.14;98569.09;10375480;28;20020;-58
2022/10/04 21:38:35;;;;;;;28.75;18.98;;;;;;;7.51;90.05;98573.28;10374661;28;20075;-58
2022/10/04 21:43:34;;;;;;;27.13;19.45;;;;;;;7.49;90.82;98576.66;10374822;28;20068;-58
2022/10/04 21:48:33;;;;;;;27.77;18.95;;;;;;;7.49;90.91;98581.84;10374543;28;20111;-58
2022/10/04 21:53:32;;;;;;;26.73;19.15;;;;;;;7.44;90.63;98579.13;10374614;28;20420;-58
2022/10/04 21:58:31;;;;;;;29.77;19.70;;;;;;;7.36;91.36;98585.81;10374514;28;20060;-58
2022/10/04 22:03:30;;;;;;;28.15;19.58;;;;;;;7.32;91.38;98586.56;10374120;28;20143;-58
2022/10/04 22:08:29;;;;;;;30.10;19.15;;;;;;;7.25;91.59;98583.81;10376052;28;20033;-58
2022/10/04 22:13:28;;;;;;;26.75;19.35;;;;;;;7.22;91.63;98578.56;10375637;28;20104;-58
2022/10/04 22:18:28;;;;;;;24.02;17.55;;;;;;;7.20;91.81;98593.13;10375619;28;20618;-58
2022/10/04 22:23:28;;;;;;;25.92;18.20;;;;;;;7.17;91.46;98595.66;10375037;28;20037;-58
2022/10/04 22:28:29;;;;;;;29.92;20.52;;;;;;;6.96;92.42;98593.38;10376262;28;20136;-58
2022/10/04 22:33:36;;;;;;;29.55;19.77;;;;;;;6.99;92.60;98605.50;10376789;28;20026;-58
2022/10/04 22:38:35;;;;;;;22.70;14.85;;;;;;;7.01;92.76;98606.41;10376962;28;20025;-58
2022/10/04 22:43:34;;;;;;;24.77;14.05;;;;;;;6.97;93.10;98612.31;10376720;28;20100;-58
2022/10/04 22:48:33;;;;;;;24.88;14.98;;;;;;;6.97;93.28;98612.31;10378732;28;20033;-58
2022/10/04 22:53:32;;;;;;;71.28;42.92;;;;;;;6.97;92.74;98622.63;10384530;28;20091;-58
2022/10/04 22:58:31;;;;;;;48.33;29.45;;;;;;;6.97;92.99;98613.19;10384386;28;20474;-58
2022/10/04 23:03:31;;;;;;;27.45;17.67;;;;;;;7.06;93.91;98606.53;10384141;28;20167;-58
2022/10/04 23:08:30;;;;;;;24.95;16.20;;;;;;;7.16;93.75;98611.97;10382397;28;20122;-58
2022/10/04 23:13:29;;;;;;;22.92;13.85;;;;;;;7.03;93.82;98595.28;10380674;28;20029;-58
2022/10/04 23:18:29;;;;;;;21.55;14.43;;;;;;;6.98;94.74;98608.88;10380311;28;20551;-58
2022/10/04 23:23:29;;;;;;;21.15;13.32;;;;;;;6.95;94.09;98603.66;10380450;28;20064;-58
2022/10/04 23:28:28;;;;;;;21.92;14.23;;;;;;;6.83;94.79;98612.78;10379973;28;20068;-58
2022/10/04 23:33:27;;;;;;;20.67;13.90;;;;;;;6.73;94.73;98613.38;10380199;28;20072;-58
2022/10/04 23:38:28;;;;;;;26.40;18.10;;;;;;;6.65;94.69;98604.53;10379795;28;20514;-58
2022/10/04 23:43:30;;;;;;;23.13;16.27;;;;;;;6.57;95.30;98611.19;10379366;28;20107;-58
2022/10/04 23:48:31;;;;;;;18.17;12.98;;;;;;;6.46;94.43;98617.75;10379369;28;20530;-58
2022/10/04 23:53:31;;;;;;;22.02;14.73;;;;;;;6.36;94.90;98612.31;10379018;28;20476;-58
2022/10/04 23:58:35;;;;;;;21.50;14.50;;;;;;;6.33;94.09;98612.25;10378964;28;20068;-58
